Terminal Aerodrome Forecast
Issued by NWS

Home | Current Version | Previous Version | Text Only | Print | Product List | Glossary On
Versions: 1 2 3 4 5 6 7 8 9 10 11 12 13 14 15 16 17 18 19 20 21 22 23 24 25 26 27 28 29 30 31 32
000
FTUS44 KFWD 051734
TAFDAL
TAF
KDAL 051734Z 0518/0618 12004KT P6SM BKN013 BKN025 OVC070
     FM052000 VRB04KT 6SM -RA BR BKN008 OVC030
     FM052200 VRB04KT 3SM -RA BR BKN007 OVC025
     FM060200 19005KT 2SM -DZ BR BKN005 BKN080
     FM060400 18004KT 6SM BR SCT008
     FM060600 18003KT 1SM BR SCT008
     FM061200 36004KT 5SM -DZ BR OVC006
     FM061500 01014KT P6SM OVC008=

USA.gov is the U.S. government's official web portal to all federal, state and local government web resources and services.